sensor_id;sensor_type;location;lat;lon;timestamp;pressure;altitude;pressure_sealevel;temperature;humidity
70015;BME280;57358;51.094;6.760;2023-04-26T00:01:04;101341.72;;;2.58;95.91
70015;BME280;57358;51.094;6.760;2023-04-26T00:03:30;101348.66;;;2.56;96.30
70015;BME280;57358;51.094;6.760;2023-04-26T00:05:59;101264.50;;;2.03;96.75
70015;BME280;57358;51.094;6.760;2023-04-26T00:08:31;101314.31;;;2.34;97.16
70015;BME280;57358;51.094;6.760;2023-04-26T00:10:58;101347.88;;;2.48;97.55
70015;BME280;57358;51.094;6.760;2023-04-26T00:13:24;101341.00;;;2.40;97.81
70015;BME280;57358;51.094;6.760;2023-04-26T00:15:51;101137.47;;;1.17;97.79
70015;BME280;57358;51.094;6.760;2023-04-26T00:18:17;101287.78;;;2.06;97.72
70015;BME280;57358;51.094;6.760;2023-04-26T00:20:44;101332.47;;;2.31;98.71
70015;BME280;57358;51.094;6.760;2023-04-26T00:23:10;101333.28;;;2.34;98.68
70015;BME280;57358;51.094;6.760;2023-04-26T00:25:37;101337.66;;;2.26;98.98
70015;BME280;57358;51.094;6.760;2023-04-26T00:28:03;101333.44;;;2.19;99.12
70015;BME280;57358;51.094;6.760;2023-04-26T00:30:30;101333.47;;;2.11;99.84
70015;BME280;57358;51.094;6.760;2023-04-26T00:32:57;101306.88;;;1.89;100.00
70015;BME280;57358;51.094;6.760;2023-04-26T00:35:23;101325.78;;;1.97;100.00
70015;BME280;57358;51.094;6.760;2023-04-26T00:37:50;101323.16;;;2.02;100.00
70015;BME280;57358;51.094;6.760;2023-04-26T00:40:16;101325.81;;;1.94;100.00
70015;BME280;57358;51.094;6.760;2023-04-26T00:42:43;101223.56;;;1.32;100.00
70015;BME280;57358;51.094;6.760;2023-04-26T00:45:09;101316.38;;;1.84;100.00
70015;BME280;57358;51.094;6.760;2023-04-26T00:47:36;101323.25;;;1.88;100.00
70015;BME280;57358;51.094;6.760;2023-04-26T00:50:03;101325.88;;;1.84;100.00
70015;BME280;57358;51.094;6.760;2023-04-26T00:52:30;101337.94;;;1.89;100.00
70015;BME280;57358;51.094;6.760;2023-04-26T00:54:57;101318.16;;;1.81;100.00
70015;BME280;57358;51.094;6.760;2023-04-26T00:57:23;101306.16;;;1.64;100.00
70015;BME280;57358;51.094;6.760;2023-04-26T00:59:51;101272.59;;;1.50;100.00
70015;BME280;57358;51.094;6.760;2023-04-26T01:02:17;101258.84;;;1.42;100.00
70015;BME280;57358;51.094;6.760;2023-04-26T01:04:44;101325.06;;;1.78;100.00
70015;BME280;57358;51.094;6.760;2023-04-26T01:07:10;101329.34;;;1.79;100.00
70015;BME280;57358;51.094;6.760;2023-04-26T01:09:37;101325.06;;;1.78;100.00
70015;BME280;57358;51.094;6.760;2023-04-26T01:12:05;101327.66;;;1.72;100.00
70015;BME280;57358;51.094;6.760;2023-04-26T01:14:35;101329.44;;;1.69;100.00
70015;BME280;57358;51.094;6.760;2023-04-26T01:17:02;101326.00;;;1.65;100.00
70015;BME280;57358;51.094;6.760;2023-04-26T01:19:29;101325.16;;;1.60;100.00
70015;BME280;57358;51.094;6.760;2023-04-26T01:21:55;101279.59;;;1.31;100.00
70015;BME280;57358;51.094;6.760;2023-04-26T01:24:21;101314.00;;;1.47;100.00
70015;BME280;57358;51.094;6.760;2023-04-26T01:26:48;101190.25;;;0.66;100.00
70015;BME280;57358;51.094;6.760;2023-04-26T01:29:16;101318.31;;;1.42;100.00
70015;BME280;57358;51.094;6.760;2023-04-26T01:31:43;101320.06;;;1.40;100.00
70015;BME280;57358;51.094;6.760;2023-04-26T01:34:10;101265.06;;;1.01;100.00
70015;BME280;57358;51.094;6.760;2023-04-26T01:36:37;101234.13;;;0.83;100.00
70015;BME280;57358;51.094;6.760;2023-04-26T01:39:03;101312.34;;;1.26;100.00
70015;BME280;57358;51.094;6.760;2023-04-26T01:41:30;101313.25;;;1.21;100.00
70015;BME280;57358;51.094;6.760;2023-04-26T01:43:57;101229.03;;;0.56;100.00
70015;BME280;57358;51.094;6.760;2023-04-26T01:46:24;101307.25;;;1.17;100.00
70015;BME280;57358;51.094;6.760;2023-04-26T01:48:51;101222.97;;;0.62;100.00
70015;BME280;57358;51.094;6.760;2023-04-26T01:51:17;101303.81;;;1.07;100.00
70015;BME280;57358;51.094;6.760;2023-04-26T01:53:44;101299.53;;;1.03;100.00
70015;BME280;57358;51.094;6.760;2023-04-26T01:56:10;101297.81;;;1.01;100.00
70015;BME280;57358;51.094;6.760;2023-04-26T01:58:37;101229.91;;;0.55;100.00
70015;BME280;57358;51.094;6.760;2023-04-26T02:01:05;101289.22;;;0.94;100.00
70015;BME280;57358;51.094;6.760;2023-04-26T02:03:32;101246.25;;;0.61;100.00
70015;BME280;57358;51.094;6.760;2023-04-26T02:05:59;101289.22;;;0.89;100.00
70015;BME280;57358;51.094;6.760;2023-04-26T02:08:25;101290.09;;;0.87;100.00
70015;BME280;57358;51.094;6.760;2023-04-26T02:10:52;101200.69;;;0.27;100.00
70015;BME280;57358;51.094;6.760;2023-04-26T02:13:18;101316.81;;;0.83;100.00
70015;BME280;57358;51.094;6.760;2023-04-26T02:15:46;101284.94;;;0.85;100.00
70015;BME280;57358;51.094;6.760;2023-04-26T02:18:12;101296.13;;;0.79;100.00
70015;BME280;57358;51.094;6.760;2023-04-26T02:20:43;101196.44;;;0.12;100.00
70015;BME280;57358;51.094;6.760;2023-04-26T02:23:12;101224.75;;;0.34;100.00
70015;BME280;57358;51.094;6.760;2023-04-26T02:25:39;101177.50;;;0.15;100.00
70015;BME280;57358;51.094;6.760;2023-04-26T02:28:07;101279.78;;;0.70;100.00
70015;BME280;57358;51.094;6.760;2023-04-26T02:30:33;101215.31;;;0.31;100.00
70015;BME280;57358;51.094;6.760;2023-04-26T02:32:59;101260.03;;;0.61;100.00
70015;BME280;57358;51.094;6.760;2023-04-26T02:35:26;101251.44;;;0.54;100.00
70015;BME280;57358;51.094;6.760;2023-04-26T02:37:55;101177.50;;;0.09;100.00
70015;BME280;57358;51.094;6.760;2023-04-26T02:40:21;101239.41;;;0.43;100.00
70015;BME280;57358;51.094;6.760;2023-04-26T02:42:48;101131.09;;;-0.25;100.00
70015;BME280;57358;51.094;6.760;2023-04-26T02:45:15;101264.34;;;0.50;100.00
70015;BME280;57358;51.094;6.760;2023-04-26T02:47:41;101265.19;;;0.46;100.00
70015;BME280;57358;51.094;6.760;2023-04-26T02:50:08;101213.63;;;0.15;100.00
70015;BME280;57358;51.094;6.760;2023-04-26T02:52:35;101250.59;;;0.32;100.00
70015;BME280;57358;51.094;6.760;2023-04-26T02:55:02;101211.91;;;0.11;100.00
70015;BME280;57358;51.094;6.760;2023-04-26T02:57:32;101262.66;;;0.30;100.00
70015;BME280;57358;51.094;6.760;2023-04-26T03:00:01;101251.47;;;0.21;100.00
70015;BME280;57358;51.094;6.760;2023-04-26T03:02:27;101256.63;;;0.19;100.00
70015;BME280;57358;51.094;6.760;2023-04-26T03:04:54;101264.38;;;0.22;100.00
70015;BME280;57358;51.094;6.760;2023-04-26T03:07:21;101185.25;;;-0.27;100.00
70015;BME280;57358;51.094;6.760;2023-04-26T03:09:47;101131.94;;;-0.57;100.00
70015;BME280;57358;51.094;6.760;2023-04-26T03:12:14;101258.34;;;0.20;100.00
70015;BME280;57358;51.094;6.760;2023-04-26T03:14:40;101257.50;;;0.21;100.00
70015;BME280;57358;51.094;6.760;2023-04-26T03:17:07;101260.09;;;0.24;100.00
70015;BME280;57358;51.094;6.760;2023-04-26T03:19:33;101267.81;;;0.24;100.00
70015;BME280;57358;51.094;6.760;2023-04-26T03:21:59;101290.19;;;0.25;100.00
70015;BME280;57358;51.094;6.760;2023-04-26T03:24:26;101116.47;;;-0.65;100.00
70015;BME280;57358;51.094;6.760;2023-04-26T03:26:53;101258.34;;;0.20;100.00
70015;BME280;57358;51.094;6.760;2023-04-26T03:29:19;101124.19;;;-0.66;100.00
70015;BME280;57358;51.094;6.760;2023-04-26T03:31:45;101249.75;;;0.10;100.00
70015;BME280;57358;51.094;6.760;2023-04-26T03:34:12;101260.94;;;0.17;100.00
70015;BME280;57358;51.094;6.760;2023-04-26T03:36:38;101247.16;;;-0.01;100.00
70015;BME280;57358;51.094;6.760;2023-04-26T03:39:05;101021.97;;;-1.24;100.00
70015;BME280;57358;51.094;6.760;2023-04-26T03:41:31;101259.22;;;0.14;100.00
70015;BME280;57358;51.094;6.760;2023-04-26T03:43:58;101262.66;;;0.12;100.00
70015;BME280;57358;51.094;6.760;2023-04-26T03:46:25;101270.38;;;0.06;100.00
70015;BME280;57358;51.094;6.760;2023-04-26T03:48:51;101054.53;;;-1.38;100.00
70015;BME280;57358;51.094;6.760;2023-04-26T03:51:18;101174.91;;;-0.59;100.00
70015;BME280;57358;51.094;6.760;2023-04-26T03:53:46;101197.28;;;-0.47;100.00
70015;BME280;57358;51.094;6.760;2023-04-26T03:56:13;101272.97;;;-0.11;100.00
70015;BME280;57358;51.094;6.760;2023-04-26T03:58:40;101267.81;;;-0.16;100.00
70015;BME280;57358;51.094;6.760;2023-04-26T04:01:07;101218.75;;;-0.45;100.00
70015;BME280;57358;51.094;6.760;2023-04-26T04:03:33;101271.25;;;-0.20;100.00
70015;BME280;57358;51.094;6.760;2023-04-26T04:06:02;101276.38;;;-0.23;100.00
70015;BME280;57358;51.094;6.760;2023-04-26T04:08:29;101281.53;;;-0.26;100.00
70015;BME280;57358;51.094;6.760;2023-04-26T04:10:55;101270.34;;;-0.27;100.00
70015;BME280;57358;51.094;6.760;2023-04-26T04:13:22;101272.94;;;-0.27;100.00
70015;BME280;57358;51.094;6.760;2023-04-26T04:15:48;101272.94;;;-0.27;100.00
70015;BME280;57358;51.094;6.760;2023-04-26T04:18:15;101272.94;;;-0.25;100.00
70015;BME280;57358;51.094;6.760;2023-04-26T04:20:42;101274.66;;;-0.26;100.00
70015;BME280;57358;51.094;6.760;2023-04-26T04:23:08;101281.53;;;-0.23;100.00
70015;BME280;57358;51.094;6.760;2023-04-26T04:25:36;101291.88;;;-0.22;100.00
70015;BME280;57358;51.094;6.760;2023-04-26T04:28:02;101169.66;;;-0.99;100.00
70015;BME280;57358;51.094;6.760;2023-04-26T04:30:29;101291.03;;;-0.17;100.00
70015;BME280;57358;51.094;6.760;2023-04-26T04:32:56;101005.50;;;-1.83;100.00
70015;BME280;57358;51.094;6.760;2023-04-26T04:35:25;101260.03;;;-0.31;100.00
70015;BME280;57358;51.094;6.760;2023-04-26T04:37:54;101058.81;;;-1.45;100.00
70015;BME280;57358;51.094;6.760;2023-04-26T04:40:24;101267.81;;;-0.16;100.00
70015;BME280;57358;51.094;6.760;2023-04-26T04:42:51;101302.22;;;0.09;100.00
70015;BME280;57358;51.094;6.760;2023-04-26T04:45:19;101306.53;;;0.16;100.00
70015;BME280;57358;51.094;6.760;2023-04-26T04:47:45;101168.91;;;-0.53;100.00
70015;BME280;57358;51.094;6.760;2023-04-26T04:50:12;101307.34;;;0.82;100.00
70015;BME280;57358;51.094;6.760;2023-04-26T04:52:39;101326.09;;;1.47;100.00
70015;BME280;57358;51.094;6.760;2023-04-26T04:55:06;101310.41;;;1.74;100.00
70015;BME280;57358;51.094;6.760;2023-04-26T04:57:33;101346.06;;;2.56;100.00
70015;BME280;57358;51.094;6.760;2023-04-26T04:59:59;101359.38;;;3.10;100.00
70015;BME280;57358;51.094;6.760;2023-04-26T05:02:34;101261.91;;;2.92;100.00
70015;BME280;57358;51.094;6.760;2023-04-26T05:05:02;101374.78;;;3.95;100.00
70015;BME280;57358;51.094;6.760;2023-04-26T05:07:33;101385.34;;;4.44;100.00
70015;BME280;57358;51.094;6.760;2023-04-26T05:10:00;101384.16;;;4.63;100.00
70015;BME280;57358;51.094;6.760;2023-04-26T05:12:26;101386.22;;;4.94;100.00
70015;BME280;57358;51.094;6.760;2023-04-26T05:14:53;101175.47;;;4.08;100.00
70015;BME280;57358;51.094;6.760;2023-04-26T05:17:20;101362.41;;;5.59;100.00
70015;BME280;57358;51.094;6.760;2023-04-26T05:19:47;101350.34;;;5.97;99.51
70015;BME280;57358;51.094;6.760;2023-04-26T05:22:13;100946.25;;;3.98;95.57
70015;BME280;57358;51.094;6.760;2023-04-26T05:24:45;101316.44;;;6.69;91.04
70015;BME280;57358;51.094;6.760;2023-04-26T05:27:12;101294.00;;;6.96;86.68
70015;BME280;57358;51.094;6.760;2023-04-26T05:29:39;101201.31;;;6.83;83.29
70015;BME280;57358;51.094;6.760;2023-04-26T05:32:06;101236.81;;;7.48;80.90
70015;BME280;57358;51.094;6.760;2023-04-26T05:34:33;101210.81;;;7.71;77.87
70015;BME280;57358;51.094;6.760;2023-04-26T05:36:59;101136.56;;;7.52;74.95
70015;BME280;57358;51.094;6.760;2023-04-26T05:39:26;101143.75;;;7.72;74.55
70015;BME280;57358;51.094;6.760;2023-04-26T05:41:52;101149.03;;;7.95;73.27
70015;BME280;57358;51.094;6.760;2023-04-26T05:44:19;101096.06;;;7.65;71.26
70015;BME280;57358;51.094;6.760;2023-04-26T05:46:45;101107.66;;;7.83;71.47
70015;BME280;57358;51.094;6.760;2023-04-26T05:49:12;101103.09;;;7.90;70.91
70015;BME280;57358;51.094;6.760;2023-04-26T05:51:38;101111.50;;;7.98;70.68
70015;BME280;57358;51.094;6.760;2023-04-26T05:54:05;101082.56;;;7.77;69.74
70015;BME280;57358;51.094;6.760;2023-04-26T05:56:31;100994.72;;;6.98;69.61
70015;BME280;57358;51.094;6.760;2023-04-26T05:58:58;101004.38;;;5.77;72.59
70015;BME280;57358;51.094;6.760;2023-04-26T06:01:24;101111.75;;;6.21;73.15
70015;BME280;57358;51.094;6.760;2023-04-26T06:03:51;101101.69;;;6.07;73.92
70015;BME280;57358;51.094;6.760;2023-04-26T06:06:21;101123.13;;;6.18;74.25
70015;BME280;57358;51.094;6.760;2023-04-26T06:08:47;101078.56;;;5.26;75.55
70015;BME280;57358;51.094;6.760;2023-04-26T06:11:14;101140.66;;;5.42;76.36
70015;BME280;57358;51.094;6.760;2023-04-26T06:13:40;101179.28;;;5.60;77.71
70015;BME280;57358;51.094;6.760;2023-04-26T06:16:07;101188.28;;;5.83;78.18
70015;BME280;57358;51.094;6.760;2023-04-26T06:18:34;101206.00;;;6.04;77.60
70015;BME280;57358;51.094;6.760;2023-04-26T06:21:00;101186.28;;;5.92;77.77
70015;BME280;57358;51.094;6.760;2023-04-26T06:23:27;101162.41;;;5.75;77.62
70015;BME280;57358;51.094;6.760;2023-04-26T06:25:53;101193.66;;;5.75;77.61
70015;BME280;57358;51.094;6.760;2023-04-26T06:28:21;101238.69;;;6.17;78.13
70015;BME280;57358;51.094;6.760;2023-04-26T06:30:48;101249.38;;;6.41;79.00
70015;BME280;57358;51.094;6.760;2023-04-26T06:33:14;101242.25;;;6.48;78.56
70015;BME280;57358;51.094;6.760;2023-04-26T06:35:41;101247.59;;;6.76;77.50
70015;BME280;57358;51.094;6.760;2023-04-26T06:38:08;101228.69;;;6.97;76.46
70015;BME280;57358;51.094;6.760;2023-04-26T06:40:34;101030.66;;;5.68;74.97
70015;BME280;57358;51.094;6.760;2023-04-26T06:43:02;101201.63;;;7.02;75.06
70015;BME280;57358;51.094;6.760;2023-04-26T06:45:29;101076.63;;;6.34;75.15
70015;BME280;57358;51.094;6.760;2023-04-26T06:47:55;101190.88;;;7.12;73.97
70015;BME280;57358;51.094;6.760;2023-04-26T06:50:23;101182.41;;;7.04;75.00
70015;BME280;57358;51.094;6.760;2023-04-26T06:52:49;101187.22;;;7.18;74.06
70015;BME280;57358;51.094;6.760;2023-04-26T06:55:16;101148.50;;;7.04;72.52
70015;BME280;57358;51.094;6.760;2023-04-26T06:57:43;101127.13;;;6.91;72.87
70015;BME280;57358;51.094;6.760;2023-04-26T07:00:10;101114.56;;;6.76;73.19
70015;BME280;57358;51.094;6.760;2023-04-26T07:02:37;101149.78;;;6.28;74.36
70015;BME280;57358;51.094;6.760;2023-04-26T07:05:04;101205.53;;;6.87;74.97
70015;BME280;57358;51.094;6.760;2023-04-26T07:07:31;101201.72;;;6.98;74.78
70015;BME280;57358;51.094;6.760;2023-04-26T07:09:58;101220.19;;;7.50;74.11
70015;BME280;57358;51.094;6.760;2023-04-26T07:12:24;101216.75;;;7.76;73.95
70015;BME280;57358;51.094;6.760;2023-04-26T07:14:50;101185.88;;;7.61;73.13
70015;BME280;57358;51.094;6.760;2023-04-26T07:17:17;101212.78;;;7.91;74.18
70015;BME280;57358;51.094;6.760;2023-04-26T07:19:43;101109.13;;;7.12;73.40
70015;BME280;57358;51.094;6.760;2023-04-26T07:22:10;101178.88;;;7.35;73.70
70015;BME280;57358;51.094;6.760;2023-04-26T07:24:37;101213.09;;;7.82;72.87
70015;BME280;57358;51.094;6.760;2023-04-26T07:27:03;101169.84;;;7.98;72.00
70015;BME280;57358;51.094;6.760;2023-04-26T07:29:30;101103.56;;;7.76;70.29
70015;BME280;57358;51.094;6.760;2023-04-26T07:31:56;100965.78;;;7.31;69.50
70015;BME280;57358;51.094;6.760;2023-04-26T07:34:24;101094.94;;;8.23;68.90
70015;BME280;57358;51.094;6.760;2023-04-26T07:36:50;101046.31;;;7.93;67.45
70015;BME280;57358;51.094;6.760;2023-04-26T07:39:17;101014.34;;;7.10;69.46
70015;BME280;57358;51.094;6.760;2023-04-26T07:41:43;100937.31;;;6.15;70.17
70015;BME280;57358;51.094;6.760;2023-04-26T07:44:10;101008.63;;;6.98;69.88
70015;BME280;57358;51.094;6.760;2023-04-26T07:46:36;101095.66;;;8.03;69.44
70015;BME280;57358;51.094;6.760;2023-04-26T07:49:02;101022.13;;;7.63;66.62
70015;BME280;57358;51.094;6.760;2023-04-26T07:51:29;100861.16;;;6.62;66.80
70015;BME280;57358;51.094;6.760;2023-04-26T07:53:56;101039.69;;;8.08;66.67
70015;BME280;57358;51.094;6.760;2023-04-26T07:56:23;100746.94;;;6.95;63.75
70015;BME280;57358;51.094;6.760;2023-04-26T07:58:49;100802.19;;;6.83;64.56
70015;BME280;57358;51.094;6.760;2023-04-26T08:01:16;100811.16;;;6.49;66.06
70015;BME280;57358;51.094;6.760;2023-04-26T08:03:43;100944.56;;;7.89;64.85
70015;BME280;57358;51.094;6.760;2023-04-26T08:06:10;100965.56;;;8.33;64.54
70015;BME280;57358;51.094;6.760;2023-04-26T08:08:37;100930.63;;;8.79;62.37
70015;BME280;57358;51.094;6.760;2023-04-26T08:11:09;100763.63;;;8.26;60.87
70015;BME280;57358;51.094;6.760;2023-04-26T08:13:36;100794.06;;;8.07;60.43
70015;BME280;57358;51.094;6.760;2023-04-26T08:16:02;100813.88;;;8.12;60.64
70015;BME280;57358;51.094;6.760;2023-04-26T08:18:29;100679.88;;;7.87;59.30
70015;BME280;57358;51.094;6.760;2023-04-26T08:20:55;100786.88;;;8.75;59.17
70015;BME280;57358;51.094;6.760;2023-04-26T08:23:22;100805.78;;;9.02;58.71
70015;BME280;57358;51.094;6.760;2023-04-26T08:25:49;100725.09;;;7.89;60.54
70015;BME280;57358;51.094;6.760;2023-04-26T08:28:15;100911.00;;;8.24;63.40
70015;BME280;57358;51.094;6.760;2023-04-26T08:30:42;100872.13;;;8.60;61.60
70015;BME280;57358;51.094;6.760;2023-04-26T08:33:09;100849.56;;;8.78;60.53
70015;BME280;57358;51.094;6.760;2023-04-26T08:35:35;100743.72;;;8.02;60.16
70015;BME280;57358;51.094;6.760;2023-04-26T08:38:01;100827.06;;;8.09;61.61
70015;BME280;57358;51.094;6.760;2023-04-26T08:40:28;100747.81;;;8.29;59.84
70015;BME280;57358;51.094;6.760;2023-04-26T08:42:55;100836.41;;;9.00;59.36
70015;BME280;57358;51.094;6.760;2023-04-26T08:45:21;100733.28;;;8.84;58.60
70015;BME280;57358;51.094;6.760;2023-04-26T08:47:49;100691.19;;;8.69;58.01
70015;BME280;57358;51.094;6.760;2023-04-26T08:50:21;100781.97;;;9.65;57.38
70015;BME280;57358;51.094;6.760;2023-04-26T08:52:50;100819.47;;;10.04;57.35
70015;BME280;57358;51.094;6.760;2023-04-26T08:55:17;100734.50;;;10.25;55.14
70015;BME280;57358;51.094;6.760;2023-04-26T08:57:47;100697.56;;;10.47;54.19
70015;BME280;57358;51.094;6.760;2023-04-26T09:00:18;100681.34;;;10.56;53.65
70015;BME280;57358;51.094;6.760;2023-04-26T09:02:49;100730.19;;;10.92;54.18
70015;BME280;57358;51.094;6.760;2023-04-26T09:05:19;100550.53;;;9.65;54.04
70015;BME280;57358;51.094;6.760;2023-04-26T09:07:55;100643.81;;;9.13;56.28
70015;BME280;57358;51.094;6.760;2023-04-26T09:10:22;100729.44;;;9.86;55.56
70015;BME280;57358;51.094;6.760;2023-04-26T09:12:54;100563.09;;;9.41;54.53
70015;BME280;57358;51.094;6.760;2023-04-26T09:15:22;100668.66;;;9.60;55.13
70015;BME280;57358;51.094;6.760;2023-04-26T09:17:49;100655.50;;;9.79;54.15
70015;BME280;57358;51.094;6.760;2023-04-26T09:20:25;100609.56;;;9.89;53.83
70015;BME280;57358;51.094;6.760;2023-04-26T09:22:53;100666.09;;;10.30;54.01
70015;BME280;57358;51.094;6.760;2023-04-26T09:25:28;100418.59;;;9.32;52.61
70015;BME280;57358;51.094;6.760;2023-04-26T09:27:55;100546.50;;;10.26;52.48
70015;BME280;57358;51.094;6.760;2023-04-26T09:30:22;100493.34;;;9.73;53.07
70015;BME280;57358;51.094;6.760;2023-04-26T09:35:23;100609.00;;;9.30;55.46
70015;BME280;57358;51.094;6.760;2023-04-26T09:38:03;100567.75;;;8.80;55.93
70015;BME280;57358;51.094;6.760;2023-04-26T09:43:08;100624.00;;;9.08;55.61
70015;BME280;57358;51.094;6.760;2023-04-26T09:46:02;100556.00;;;8.89;53.73
70015;BME280;57358;51.094;6.760;2023-04-26T09:48:32;100595.31;;;9.06;54.03
70015;BME280;57358;51.094;6.760;2023-04-26T09:53:36;100546.31;;;10.13;50.60
70015;BME280;57358;51.094;6.760;2023-04-26T09:56:14;100582.69;;;10.36;50.94
70015;BME280;57358;51.094;6.760;2023-04-26T10:01:18;100614.22;;;10.52;50.68
70015;BME280;57358;51.094;6.760;2023-04-26T10:03:45;100536.06;;;10.42;50.05
70015;BME280;57358;51.094;6.760;2023-04-26T10:06:12;100602.47;;;10.75;49.46
70015;BME280;57358;51.094;6.760;2023-04-26T10:08:39;100540.22;;;10.77;48.39
70015;BME280;57358;51.094;6.760;2023-04-26T10:11:06;100561.63;;;11.48;47.20
70015;BME280;57358;51.094;6.760;2023-04-26T10:13:33;100521.75;;;11.55;45.96
70015;BME280;57358;51.094;6.760;2023-04-26T10:16:02;100582.97;;;11.57;47.14
70015;BME280;57358;51.094;6.760;2023-04-26T10:18:30;100517.41;;;11.10;46.33
70015;BME280;57358;51.094;6.760;2023-04-26T10:21:11;100438.78;;;9.97;47.56
70015;BME280;57358;51.094;6.760;2023-04-26T10:23:40;100457.94;;;9.82;47.55
70015;BME280;57358;51.094;6.760;2023-04-26T10:29:12;100584.78;;;10.95;46.62
70015;BME280;57358;51.094;6.760;2023-04-26T10:32:06;100632.94;;;10.94;47.70
70015;BME280;57358;51.094;6.760;2023-04-26T10:34:36;100593.44;;;10.48;48.02
70015;BME280;57358;51.094;6.760;2023-04-26T10:39:38;100452.56;;;9.67;47.41
70015;BME280;57358;51.094;6.760;2023-04-26T10:42:26;100659.69;;;10.69;47.65
70015;BME280;57358;51.094;6.760;2023-04-26T10:44:57;100560.09;;;9.66;49.00
70015;BME280;57358;51.094;6.760;2023-04-26T10:47:31;100628.06;;;9.69;49.91
70015;BME280;57358;51.094;6.760;2023-04-26T10:50:08;100683.66;;;9.93;49.55
70015;BME280;57358;51.094;6.760;2023-04-26T10:52:37;100552.66;;;9.22;49.72
70015;BME280;57358;51.094;6.760;2023-04-26T10:55:04;100650.13;;;10.34;47.97
70015;BME280;57358;51.094;6.760;2023-04-26T10:57:49;100671.47;;;10.27;48.06
70015;BME280;57358;51.094;6.760;2023-04-26T11:00:20;100747.66;;;10.93;47.50
70015;BME280;57358;51.094;6.760;2023-04-26T11:03:04;100592.72;;;10.93;45.47
70015;BME280;57358;51.094;6.760;2023-04-26T11:06:04;100631.50;;;10.88;46.59
70015;BME280;57358;51.094;6.760;2023-04-26T11:08:27;100746.97;;;11.55;46.01
70015;BME280;57358;51.094;6.760;2023-04-26T11:13:32;100754.16;;;11.83;45.83
70015;BME280;57358;51.094;6.760;2023-04-26T11:16:01;100657.47;;;11.56;44.91
70015;BME280;57358;51.094;6.760;2023-04-26T11:18:31;100636.91;;;11.49;44.75
70015;BME280;57358;51.094;6.760;2023-04-26T11:20:58;100753.63;;;11.76;45.58
70015;BME280;57358;51.094;6.760;2023-04-26T11:23:27;100611.78;;;10.81;45.80
70015;BME280;57358;51.094;6.760;2023-04-26T11:26:01;100703.97;;;11.40;45.54
70015;BME280;57358;51.094;6.760;2023-04-26T11:28:32;100613.66;;;10.46;46.84
70015;BME280;57358;51.094;6.760;2023-04-26T11:31:01;100779.38;;;11.22;46.57
70015;BME280;57358;51.094;6.760;2023-04-26T11:33:28;100750.06;;;11.46;46.10
70015;BME280;57358;51.094;6.760;2023-04-26T11:35:56;100681.41;;;11.52;44.70
70015;BME280;57358;51.094;6.760;2023-04-26T11:38:24;100711.69;;;10.78;47.12
70015;BME280;57358;51.094;6.760;2023-04-26T11:40:58;100622.19;;;10.33;47.02
70015;BME280;57358;51.094;6.760;2023-04-26T11:43:38;100711.97;;;10.56;47.47
70015;BME280;57358;51.094;6.760;2023-04-26T11:46:06;100792.44;;;10.90;47.78
70015;BME280;57358;51.094;6.760;2023-04-26T11:48:34;100842.38;;;11.40;47.57
70015;BME280;57358;51.094;6.760;2023-04-26T11:51:03;100912.75;;;12.17;46.57
70015;BME280;57358;51.094;6.760;2023-04-26T11:53:40;100795.72;;;11.92;45.41
70015;BME280;57358;51.094;6.760;2023-04-26T11:56:18;100807.31;;;11.88;46.09
70015;BME280;57358;51.094;6.760;2023-04-26T11:58:47;100819.31;;;12.40;44.92
70015;BME280;57358;51.094;6.760;2023-04-26T12:01:21;100634.28;;;11.49;44.37
70015;BME280;57358;51.094;6.760;2023-04-26T12:03:53;100867.94;;;13.24;43.78
70015;BME280;57358;51.094;6.760;2023-04-26T12:06:41;100707.94;;;12.54;42.54
70015;BME280;57358;51.094;6.760;2023-04-26T12:09:08;100703.44;;;12.42;41.69
70015;BME280;57358;51.094;6.760;2023-04-26T12:11:37;100633.06;;;11.54;43.53
70015;BME280;57358;51.094;6.760;2023-04-26T12:14:03;100660.25;;;11.23;43.51
70015;BME280;57358;51.094;6.760;2023-04-26T12:16:31;100636.53;;;11.25;43.40
70015;BME280;57358;51.094;6.760;2023-04-26T12:18:57;100650.00;;;10.87;44.51
70015;BME280;57358;51.094;6.760;2023-04-26T12:21:24;100896.00;;;12.34;44.33
70015;BME280;57358;51.094;6.760;2023-04-26T12:23:55;100678.88;;;11.96;42.05
70015;BME280;57358;51.094;6.760;2023-04-26T12:26:21;100778.94;;;12.55;42.37
70015;BME280;57358;51.094;6.760;2023-04-26T12:28:47;100677.63;;;11.88;42.70
70015;BME280;57358;51.094;6.760;2023-04-26T12:31:14;100617.47;;;11.21;43.53
70015;BME280;57358;51.094;6.760;2023-04-26T12:33:40;100756.53;;;11.72;43.68
70015;BME280;57358;51.094;6.760;2023-04-26T12:36:08;100892.88;;;12.73;42.93
70015;BME280;57358;51.094;6.760;2023-04-26T12:38:35;100696.63;;;12.23;42.13
70015;BME280;57358;51.094;6.760;2023-04-26T12:41:02;100675.78;;;11.74;42.85
70015;BME280;57358;51.094;6.760;2023-04-26T12:43:29;100595.94;;;10.67;44.24
70015;BME280;57358;51.094;6.760;2023-04-26T12:45:56;100649.72;;;10.75;43.97
70015;BME280;57358;51.094;6.760;2023-04-26T12:48:22;100567.97;;;10.50;43.35
70015;BME280;57358;51.094;6.760;2023-04-26T12:50:49;100564.91;;;10.24;43.56
70015;BME280;57358;51.094;6.760;2023-04-26T12:53:16;100842.47;;;12.03;42.98
70015;BME280;57358;51.094;6.760;2023-04-26T12:55:43;100845.56;;;12.42;42.80
70015;BME280;57358;51.094;6.760;2023-04-26T12:58:10;100765.34;;;11.87;42.33
70015;BME280;57358;51.094;6.760;2023-04-26T13:00:37;100811.41;;;12.40;41.83
70015;BME280;57358;51.094;6.760;2023-04-26T13:03:03;100873.16;;;12.65;42.94
70015;BME280;57358;51.094;6.760;2023-04-26T13:05:30;100821.59;;;12.46;42.08
70015;BME280;57358;51.094;6.760;2023-04-26T13:07:57;100868.91;;;12.78;42.42
70015;BME280;57358;51.094;6.760;2023-04-26T13:10:25;100909.06;;;13.12;42.38
70015;BME280;57358;51.094;6.760;2023-04-26T13:12:52;100962.19;;;12.74;44.62
70015;BME280;57358;51.094;6.760;2023-04-26T13:15:19;100846.63;;;12.23;44.13